Aladdin, Wyoming
Current Conditions -  °F | °C
As of 5:35 AM on Saturday 20 Dec 2014 (Local Time) from KSPF Reporting Station
Overcast Overcast  
Wind Chill: 34°   Ceiling: 6000
Heat Index: 37°   Visibility: 10mi
Dew Point: 23°   Wind: 5mph
Humidity: 56%   Direction: 270°W
Pressure: 29.91"   Gusts: NA
Location:  44.64°N, 104.18°W
Report Text: KSPF 201235Z AUTO 27004KT 10SM OVC060 03/M05 A2991 RMK AO2
Loading
Personal Weather Stations






























Interactive Weather Map New forecast layout! Learn more

10-Day Weather Forecast

Advertisements
Track Severe Weather on mobile